This is the latest recevied weather packets stored in our database for station/object XE1E-15. If no packets are shown the sender has not sent any weather packets the latest 10 day(s).
| Time | Temp. | Humidity | Pressure | Rain* | Wind** | Luminosity | Snow |
|---|---|---|---|---|---|---|---|
| 1777364852 | 23.33° C | 53% | 1024.1 hPa | - | - | - | - |
| 1777363892 | 23.33° C | 52% | 1024.2 hPa | - | - | - | - |
| 1777362932 | 23.89° C | 52% | 1024.4 hPa | - | - | - | - |
| 1777361972 | 23.33° C | 52% | 1024.5 hPa | - | - | - | - |
| 1777361494 | 23.33° C | 50% | 1024.5 hPa | - | - | - | - |
| 1777360534 | 23.33° C | 50% | 1024.6 hPa | - | - | - | - |
| 1777359574 | 23.89° C | 49% | 1024.7 hPa | - | - | - | - |
| 1777358614 | 24.44° C | 49% | 1024.7 hPa | - | - | - | - |
| 1777357654 | 23.89° C | 49% | 1024.6 hPa | - | - | - | - |
| 1777356694 | 23.89° C | 48% | 1024.7 hPa | - | - | - | - |
| 1777355734 | 23.89° C | 47% | 1024.7 hPa | - | - | - | - |
| 1777354774 | 23.89° C | 46% | 1024.5 hPa | - | - | - | - |
| 1777353814 | 23.89° C | 46% | 1024.5 hPa | - | - | - | - |
| 1777352854 | 24.44° C | 45% | 1024.6 hPa | - | - | - | - |
| 1777351894 | 24.44° C | 45% | 1024.6 hPa | - | - | - | - |
| 1777350933 | 24.44° C | 46% | 1024.7 hPa | - | - | - | - |
| 1777349973 | 23.89° C | 47% | 1024.5 hPa | - | - | - | - |
| 1777349013 | 23.33° C | 47% | 1024.7 hPa | - | - | - | - |
| 1777348053 | 22.22° C | 49% | 1024.7 hPa | - | - | - | - |
| 1777347093 | 22.22° C | 49% | 1024.9 hPa | - | - | - | - |
| 1777346132 | 22.78° C | 50% | 1025.1 hPa | - | - | - | - |
| 1777345172 | 25° C | 45% | 1025.5 hPa | - | - | - | - |
| 1777344212 | 25° C | 47% | 1025 hPa | - | - | - | - |
| 1777343252 | 24.44° C | 47% | 1024.4 hPa | - | - | - | - |
| 1777342292 | 24.44° C | 46% | 1024.4 hPa | - | - | - | - |
* Rain since midnight (hover to see other rain measurements)
** Current wind speed in m/s (hover to see current wind gust speed)